createdAt,value
2022-08-02T00:02:56.792Z,2.53
2022-08-02T00:06:03.373Z,2.60
2022-08-02T00:09:05.857Z,2.85
2022-08-02T00:12:11.742Z,2.80
2022-08-02T00:15:16.214Z,2.62
2022-08-02T00:18:19.565Z,2.72
2022-08-02T00:21:27.159Z,2.87
2022-08-02T00:24:35.487Z,2.33
2022-08-02T00:27:42.823Z,2.55
2022-08-02T00:30:47.559Z,2.50
2022-08-02T00:34:05.296Z,2.28
2022-08-02T00:37:16.396Z,2.75
2022-08-02T00:40:22.980Z,2.53
2022-08-02T00:43:26.750Z,2.37
2022-08-02T00:46:29.522Z,2.20
2022-08-02T00:49:33.021Z,2.50
2022-08-02T00:52:37.572Z,2.40
2022-08-02T00:55:40.870Z,2.60
2022-08-02T00:58:44.214Z,2.25
2022-08-02T01:01:57.327Z,2.70
2022-08-02T01:05:01.406Z,2.28
2022-08-02T01:08:04.502Z,2.45
2022-08-02T01:11:10.981Z,2.33
2022-08-02T01:14:15.752Z,2.10
2022-08-02T01:17:23.222Z,2.55
2022-08-02T01:20:49.359Z,2.20
2022-08-02T01:24:10.589Z,2.12
2022-08-02T01:27:36.186Z,2.30
2022-08-02T01:30:43.844Z,2.75
2022-08-02T01:34:09.036Z,2.50
2022-08-02T01:37:35.750Z,2.35
2022-08-02T01:40:44.612Z,2.22
2022-08-02T01:43:49.787Z,2.40
2022-08-02T01:47:00.055Z,2.65
2022-08-02T01:50:09.274Z,2.72
2022-08-02T01:53:19.001Z,2.42
2022-08-02T01:56:22.165Z,2.83
2022-08-02T01:59:27.999Z,2.62
2022-08-02T02:02:35.449Z,2.33
2022-08-02T02:05:39.565Z,2.40
2022-08-02T02:08:43.641Z,2.60
2022-08-02T02:12:09.841Z,2.50
2022-08-02T02:15:14.495Z,2.60
2022-08-02T02:18:23.199Z,2.78
2022-08-02T02:21:26.201Z,2.35
2022-08-02T02:24:32.266Z,2.92
2022-08-02T02:27:46.358Z,3.17
2022-08-02T02:30:53.389Z,2.55
2022-08-02T02:34:00.637Z,2.67
2022-08-02T02:37:06.282Z,2.60
2022-08-02T02:40:11.999Z,2.62
2022-08-02T02:43:19.620Z,2.70
2022-08-02T02:49:48.799Z,2.60
2022-08-02T02:52:52.907Z,2.58
2022-08-02T02:56:02.746Z,2.50
2022-08-02T02:59:07.460Z,2.78
2022-08-02T03:02:13.301Z,2.83
2022-08-02T03:05:17.936Z,2.20
2022-08-02T03:08:22.883Z,3.08
2022-08-02T03:11:31.064Z,3.22
2022-08-02T03:14:34.779Z,2.67
2022-08-02T03:17:46.865Z,3.15
2022-08-02T03:20:49.677Z,2.87
2022-08-02T03:23:54.082Z,2.60
2022-08-02T03:27:04.763Z,2.50
2022-08-02T03:30:11.759Z,2.53
2022-08-02T03:33:18.528Z,2.70
2022-08-02T03:36:25.876Z,2.90
2022-08-02T03:42:56.208Z,2.55
2022-08-02T03:46:01.942Z,2.62
2022-08-02T03:49:04.862Z,2.97
2022-08-02T03:52:11.689Z,3.22
2022-08-02T03:55:14.893Z,2.60
2022-08-02T03:58:20.233Z,3.00
2022-08-02T04:01:23.225Z,2.60
2022-08-02T04:04:26.438Z,2.65
2022-08-02T04:08:34.115Z,2.67
2022-08-02T04:11:11.020Z,3.03
2022-08-02T04:14:20.773Z,2.60
2022-08-02T04:17:25.390Z,2.95
2022-08-02T04:20:31.602Z,2.78
2022-08-02T04:23:38.360Z,2.85
2022-08-02T04:26:44.184Z,2.45
2022-08-02T04:29:52.532Z,2.80
2022-08-02T04:32:58.989Z,2.65
2022-08-02T04:36:06.156Z,2.70
2022-08-02T04:39:08.981Z,2.50
2022-08-02T04:42:21.561Z,2.47
2022-08-02T04:45:25.694Z,2.80
2022-08-02T04:48:28.933Z,2.40
2022-08-02T04:51:38.511Z,2.80
2022-08-02T04:54:44.002Z,3.00
2022-08-02T04:57:54.821Z,3.00
2022-08-02T05:00:57.968Z,2.90
2022-08-02T05:04:00.940Z,2.80
2022-08-02T05:07:07.728Z,2.65
2022-08-02T05:10:13.660Z,2.47
2022-08-02T05:13:20.290Z,2.58
2022-08-02T05:16:43.577Z,2.37
2022-08-02T05:19:47.233Z,2.30
2022-08-02T05:22:50.412Z,2.00
2022-08-02T05:25:55.552Z,2.80
2022-08-02T05:28:58.034Z,2.50
2022-08-02T05:32:03.292Z,2.53
2022-08-02T05:35:07.365Z,3.00
2022-08-02T05:38:14.663Z,2.40
2022-08-02T05:41:19.437Z,2.75
2022-08-02T05:44:24.863Z,2.20
2022-08-02T05:47:27.532Z,2.12
2022-08-02T05:50:34.501Z,2.65
2022-08-02T05:53:45.323Z,2.10
2022-08-02T05:57:11.946Z,2.92
2022-08-02T06:00:18.370Z,2.00
2022-08-02T06:03:39.570Z,2.10
2022-08-02T06:06:44.685Z,1.80
2022-08-02T06:09:49.420Z,2.35
2022-08-02T06:13:17.025Z,2.08
2022-08-02T06:16:44.525Z,2.15
2022-08-02T06:19:51.696Z,1.95
2022-08-02T06:23:01.695Z,1.87
2022-08-02T06:26:06.809Z,2.22
2022-08-02T06:29:10.392Z,2.30
2022-08-02T06:32:14.871Z,2.25
2022-08-02T06:35:18.550Z,2.20
2022-08-02T06:38:33.318Z,2.40
2022-08-02T06:41:44.689Z,1.93
2022-08-02T06:44:53.132Z,2.20
2022-08-02T06:48:00.631Z,2.17
2022-08-02T06:51:06.118Z,2.10
2022-08-02T06:54:11.587Z,1.87
2022-08-02T06:57:14.953Z,2.00
2022-08-02T07:00:18.071Z,2.05
2022-08-02T07:03:25.746Z,2.30
2022-08-02T07:06:29.326Z,2.30
2022-08-02T07:09:31.908Z,2.37
2022-08-02T07:12:35.669Z,2.35
2022-08-02T07:15:49.257Z,2.45
2022-08-02T07:18:52.531Z,2.60
2022-08-02T07:22:13.294Z,2.30
2022-08-02T07:25:16.770Z,2.10
2022-08-02T07:28:24.005Z,2.37
2022-08-02T07:31:30.524Z,1.98
2022-08-02T07:34:32.958Z,2.40
2022-08-02T07:37:55.134Z,2.33
2022-08-02T07:41:03.879Z,2.28
2022-08-02T07:44:08.912Z,2.62
2022-08-02T07:47:11.870Z,2.28
2022-08-02T07:50:17.129Z,2.30
2022-08-02T07:53:20.084Z,2.65
2022-08-02T07:56:43.230Z,2.30
2022-08-02T07:59:46.947Z,2.45
2022-08-02T08:02:50.044Z,1.87
2022-08-02T08:05:55.747Z,1.90
2022-08-02T08:08:58.964Z,2.00
2022-08-02T08:12:03.916Z,1.95
2022-08-02T08:15:07.570Z,1.77
2022-08-02T08:18:13.679Z,2.10
2022-08-02T08:24:19.372Z,2.00
2022-08-02T08:27:23.261Z,1.70
2022-08-02T08:30:32.860Z,1.80
2022-08-02T08:33:35.332Z,1.83
2022-08-02T08:36:38.904Z,1.67
2022-08-02T08:39:57.578Z,1.67
2022-08-02T08:43:01.364Z,1.90
2022-08-02T08:46:04.980Z,1.67
2022-08-02T08:49:16.831Z,1.65
2022-08-02T08:52:25.753Z,1.55
2022-08-02T08:55:29.984Z,1.37
2022-08-02T08:58:32.395Z,1.50
2022-08-02T09:01:49.876Z,1.50
2022-08-02T09:04:55.281Z,1.33
2022-08-02T09:08:01.047Z,1.50
2022-08-02T09:11:15.684Z,1.60
2022-08-02T09:14:32.675Z,1.60
2022-08-02T09:17:36.159Z,1.45
2022-08-02T09:21:00.944Z,1.50
2022-08-02T09:24:16.320Z,1.60
2022-08-02T09:27:21.410Z,1.80
2022-08-02T09:30:29.186Z,1.67
2022-08-02T09:33:32.852Z,1.60
2022-08-02T09:36:46.863Z,1.52
2022-08-02T09:39:52.263Z,1.70
2022-08-02T09:43:02.338Z,1.67
2022-08-02T09:46:25.516Z,1.60
2022-08-02T09:49:30.521Z,1.42
2022-08-02T09:52:37.440Z,1.42
2022-08-02T09:55:56.093Z,1.67
2022-08-02T09:59:07.087Z,1.50
2022-08-02T10:02:17.691Z,1.65
2022-08-02T10:05:30.382Z,1.33
2022-08-02T10:08:54.872Z,1.40
2022-08-02T10:11:58.338Z,1.33
2022-08-02T10:15:05.679Z,1.30
2022-08-02T10:18:35.755Z,1.50
2022-08-02T10:21:48.476Z,1.50
2022-08-02T10:24:52.524Z,1.50
2022-08-02T10:28:05.316Z,1.40
2022-08-02T10:31:13.333Z,1.50
2022-08-02T10:34:21.773Z,1.20
2022-08-02T10:37:29.940Z,1.20
2022-08-02T10:40:46.855Z,1.30
2022-08-02T10:43:50.758Z,1.10
2022-08-02T10:47:23.552Z,1.40
2022-08-02T10:50:53.091Z,1.30
2022-08-02T10:54:10.604Z,1.23
2022-08-02T10:57:23.107Z,1.35
2022-08-02T11:00:28.294Z,1.27
2022-08-02T11:03:33.583Z,1.37
2022-08-02T11:07:18.911Z,1.23
2022-08-02T11:10:33.655Z,1.27
2022-08-02T11:16:57.313Z,1.30
2022-08-02T11:20:11.061Z,1.30
2022-08-02T11:23:45.276Z,1.48
2022-08-02T11:26:48.686Z,1.20
2022-08-02T11:29:51.810Z,1.10
2022-08-02T11:32:58.627Z,0.98
2022-08-02T11:36:04.612Z,1.20
2022-08-02T11:39:15.814Z,1.25
2022-08-02T11:42:19.098Z,1.15
2022-08-02T11:45:29.985Z,1.15
2022-08-02T11:48:42.233Z,1.33
2022-08-02T11:52:01.931Z,1.40
2022-08-02T11:55:30.552Z,1.10
2022-08-02T11:59:02.511Z,1.08
2022-08-02T12:02:35.856Z,1.20
2022-08-02T12:06:04.749Z,1.20
2022-08-02T12:09:17.632Z,1.17
2022-08-02T12:12:24.376Z,1.20
2022-08-02T12:15:40.314Z,1.30
2022-08-02T12:19:07.871Z,1.17
2022-08-02T12:22:27.487Z,1.20
2022-08-02T12:25:35.739Z,1.05
2022-08-02T12:28:43.018Z,1.23
2022-08-02T12:31:56.257Z,1.10
2022-08-02T12:35:11.514Z,1.27
2022-08-02T12:38:14.488Z,1.10
2022-08-02T12:41:30.292Z,1.40
2022-08-02T12:44:39.384Z,1.42
2022-08-02T12:47:50.933Z,1.20
2022-08-02T12:50:56.525Z,1.23
2022-08-02T12:54:30.956Z,1.50
2022-08-02T12:57:52.038Z,1.48
2022-08-02T13:00:57.269Z,1.20
2022-08-02T13:04:12.016Z,1.12
2022-08-02T13:07:19.387Z,1.50
2022-08-02T13:10:27.714Z,1.58
2022-08-02T13:13:32.137Z,1.40
2022-08-02T13:16:37.579Z,1.30
2022-08-02T13:19:41.032Z,1.42
2022-08-02T13:22:52.846Z,1.10
2022-08-02T13:25:56.342Z,1.30
2022-08-02T13:29:00.016Z,1.10
2022-08-02T13:32:03.095Z,1.40
2022-08-02T13:35:06.847Z,1.30
2022-08-02T13:38:24.800Z,1.15
2022-08-02T13:41:28.038Z,1.10
2022-08-02T13:44:50.589Z,1.25
2022-08-02T13:48:03.641Z,1.23
2022-08-02T13:51:12.159Z,1.25
2022-08-02T13:54:18.089Z,1.27
2022-08-02T13:57:21.076Z,3.10
2022-08-02T14:00:34.803Z,1.60
2022-08-02T14:04:08.626Z,1.30
2022-08-02T14:07:01.955Z,1.20
2022-08-02T14:10:05.233Z,0.90
2022-08-02T14:13:07.784Z,1.17
2022-08-02T14:16:12.989Z,1.40
2022-08-02T14:19:24.516Z,0.88
2022-08-02T14:22:28.873Z,0.70
2022-08-02T14:25:31.503Z,0.90
2022-08-02T14:28:37.435Z,0.70
2022-08-02T14:31:43.979Z,0.80
2022-08-02T14:34:47.737Z,0.88
2022-08-02T14:37:52.167Z,0.70
2022-08-02T14:40:54.973Z,0.80
2022-08-02T14:44:09.475Z,0.77
2022-08-02T14:47:12.259Z,0.70
2022-08-02T14:50:18.186Z,0.70
2022-08-02T14:53:23.897Z,0.60
2022-08-02T14:56:26.817Z,0.77
2022-08-02T14:59:31.165Z,0.60
2022-08-02T15:02:34.191Z,0.60
2022-08-02T15:05:38.589Z,0.50
2022-08-02T15:08:41.061Z,0.65
2022-08-02T15:11:48.240Z,0.60
2022-08-02T15:14:52.446Z,0.70
2022-08-02T15:17:56.292Z,0.60
2022-08-02T15:21:40.389Z,0.60
2022-08-02T15:24:27.251Z,0.70
2022-08-02T15:27:32.481Z,0.57
2022-08-02T15:30:39.478Z,0.60
2022-08-02T15:33:42.214Z,0.65
2022-08-02T15:36:45.109Z,0.70
2022-08-02T15:39:50.003Z,0.70
2022-08-02T15:42:52.807Z,0.68
2022-08-02T15:45:55.530Z,0.73
2022-08-02T15:48:58.521Z,0.70
2022-08-02T15:52:04.277Z,0.60
2022-08-02T15:55:08.369Z,0.70
2022-08-02T15:58:16.852Z,0.70
2022-08-02T16:01:23.370Z,0.70
2022-08-02T16:07:31.356Z,0.70
2022-08-02T16:10:34.829Z,0.70
2022-08-02T16:13:55.567Z,0.60
2022-08-02T16:16:58.788Z,0.70
2022-08-02T16:20:03.537Z,0.60
2022-08-02T16:23:10.870Z,0.93
2022-08-02T16:26:13.755Z,0.62
2022-08-02T16:29:19.317Z,0.60
2022-08-02T16:32:24.879Z,0.70
2022-08-02T16:38:31.452Z,0.60
2022-08-02T16:41:51.750Z,0.65
2022-08-02T16:44:59.154Z,0.60
2022-08-02T16:48:05.381Z,0.98
2022-08-02T16:51:13.421Z,0.85
2022-08-02T16:54:20.237Z,0.73
2022-08-02T16:57:23.721Z,0.73
2022-08-02T17:00:46.754Z,0.62
2022-08-02T17:03:55.881Z,0.60
2022-08-02T17:07:03.104Z,0.90
2022-08-02T17:10:09.164Z,0.93
2022-08-02T17:13:13.112Z,0.80
2022-08-02T17:16:20.270Z,0.85
2022-08-02T17:19:29.799Z,0.90
2022-08-02T17:22:41.720Z,0.90
2022-08-02T17:25:52.349Z,0.80
2022-08-02T17:29:14.700Z,0.90
2022-08-02T17:32:19.691Z,0.82
2022-08-02T17:35:40.050Z,0.80
2022-08-02T17:38:52.768Z,0.98
2022-08-02T17:41:57.725Z,1.10
2022-08-02T17:45:07.081Z,0.82
2022-08-02T17:48:19.610Z,0.77
2022-08-02T17:52:48.695Z,1.10
2022-08-02T17:55:02.274Z,1.10
2022-08-02T17:58:12.686Z,1.10
2022-08-02T18:01:23.875Z,0.93
2022-08-02T18:04:28.593Z,1.02
2022-08-02T18:07:43.298Z,0.85
2022-08-02T18:10:55.731Z,1.40
2022-08-02T18:13:58.642Z,1.02
2022-08-02T18:17:07.120Z,1.02
2022-08-02T18:20:13.365Z,1.05
2022-08-02T18:23:19.123Z,0.98
2022-08-02T18:26:27.444Z,0.90
2022-08-02T18:29:38.610Z,0.80
2022-08-02T18:36:08.200Z,0.70
2022-08-02T18:39:10.923Z,0.70
2022-08-02T18:42:16.206Z,0.52
2022-08-02T18:45:20.828Z,0.75
2022-08-02T18:48:23.754Z,0.77
2022-08-02T18:51:36.664Z,0.75
2022-08-02T18:54:41.979Z,0.70
2022-08-02T18:58:18.698Z,1.00
2022-08-02T19:01:21.656Z,0.70
2022-08-02T19:04:35.527Z,0.62
2022-08-02T19:07:50.833Z,0.70
2022-08-02T19:10:56.458Z,0.50
2022-08-02T19:14:00.319Z,0.80
2022-08-02T19:17:54.167Z,0.80
2022-08-02T19:20:26.633Z,0.70
2022-08-02T19:23:33.822Z,0.70
2022-08-02T19:26:39.809Z,0.80
2022-08-02T19:29:50.887Z,0.65
2022-08-02T19:32:58.902Z,1.00
2022-08-02T19:36:06.588Z,0.90
2022-08-02T19:39:10.258Z,0.70
2022-08-02T19:42:20.554Z,0.85
2022-08-02T19:45:49.326Z,0.70
2022-08-02T19:48:52.067Z,0.93
2022-08-02T19:51:56.833Z,0.80
2022-08-02T19:55:58.775Z,0.70
2022-08-02T19:58:25.374Z,0.90
2022-08-02T20:01:38.815Z,0.70
2022-08-02T20:04:49.848Z,0.77
2022-08-02T20:08:07.477Z,0.77
2022-08-02T20:11:14.788Z,0.82
2022-08-02T20:14:17.876Z,0.70
2022-08-02T20:17:34.206Z,0.60
2022-08-02T20:23:41.809Z,0.80
2022-08-02T20:30:08.047Z,0.82
2022-08-02T20:33:21.627Z,0.70
2022-08-02T20:36:27.155Z,0.70
2022-08-02T20:39:43.107Z,0.70
2022-08-02T20:42:50.143Z,0.80
2022-08-02T20:46:00.427Z,1.27
2022-08-02T20:49:09.606Z,0.80
2022-08-02T20:52:23.273Z,0.90
2022-08-02T20:55:31.826Z,0.80
2022-08-02T20:58:34.703Z,0.90
2022-08-02T21:01:38.041Z,0.80
2022-08-02T21:04:41.954Z,1.05
2022-08-02T21:07:53.539Z,0.70
2022-08-02T21:10:57.541Z,0.85
2022-08-02T21:14:19.631Z,0.80
2022-08-02T21:17:44.179Z,0.82
2022-08-02T21:20:58.636Z,0.93
2022-08-02T21:24:28.181Z,0.62
2022-08-02T21:27:52.840Z,0.88
2022-08-02T21:30:57.956Z,1.00
2022-08-02T21:34:01.660Z,0.75
2022-08-02T21:37:10.165Z,1.00
2022-08-02T21:40:27.441Z,1.00
2022-08-02T21:43:47.432Z,0.80
2022-08-02T21:47:14.248Z,0.75
2022-08-02T21:50:19.620Z,0.90
2022-08-02T21:53:42.830Z,0.90
2022-08-02T21:57:16.595Z,0.90
2022-08-02T22:00:28.438Z,1.10
2022-08-02T22:07:29.915Z,0.95
2022-08-02T22:11:03.318Z,1.10
2022-08-02T22:14:08.707Z,1.17
2022-08-02T22:17:15.951Z,0.90
2022-08-02T22:20:23.013Z,0.73
2022-08-02T22:23:38.871Z,1.08
2022-08-02T22:26:58.925Z,0.80
2022-08-02T22:30:17.456Z,0.90
2022-08-02T22:33:47.413Z,1.00
2022-08-02T22:37:07.457Z,0.82
2022-08-02T22:40:27.145Z,1.08
2022-08-02T22:43:33.609Z,1.00
2022-08-02T22:46:38.487Z,1.05
2022-08-02T22:49:53.069Z,1.07
2022-08-02T22:53:06.699Z,1.17
2022-08-02T22:56:15.478Z,1.30
2022-08-02T22:58:55.407Z,0.80
2022-08-02T22:58:57.369Z,0.65
2022-08-02T22:59:04.040Z,1.00
2022-08-02T23:02:30.362Z,1.00
2022-08-02T23:05:35.838Z,1.50
2022-08-02T23:08:39.378Z,1.40
2022-08-02T23:11:44.694Z,1.50
2022-08-02T23:14:51.234Z,1.30
2022-08-02T23:18:12.694Z,1.60
2022-08-02T23:21:45.915Z,1.30
2022-08-02T23:24:45.946Z,1.35
2022-08-02T23:27:51.183Z,1.40
2022-08-02T23:30:53.991Z,1.48
2022-08-02T23:33:58.513Z,1.80
2022-08-02T23:37:10.171Z,1.98
2022-08-02T23:40:13.825Z,1.90
2022-08-02T23:43:21.542Z,1.62
2022-08-02T23:46:32.240Z,1.55
2022-08-02T23:49:35.983Z,2.22
2022-08-02T23:52:42.723Z,1.80
2022-08-02T23:55:45.355Z,1.77
2022-08-02T23:58:48.993Z,1.87
